createdAt,value
2023-02-24T01:40:52.981Z,8.75
2023-02-24T01:43:20.711Z,8.72
2023-02-24T01:45:49.492Z,8.33
2023-02-24T01:50:58.030Z,8.41
2023-02-24T03:58:33.382Z,7.87
2023-02-24T04:07:33.600Z,10.05
2023-02-24T04:15:21.985Z,9.73
2023-02-24T04:17:52.706Z,9.96
2023-02-24T04:20:29.754Z,9.96
2023-02-24T08:00:18.257Z,9.23
2023-02-24T08:02:50.029Z,9.89
2023-02-24T08:05:18.031Z,9.29
2023-02-24T08:07:45.359Z,9.54
2023-02-24T08:10:11.748Z,9.28
2023-02-24T08:12:38.174Z,9.44
2023-02-24T08:15:05.589Z,9.13
2023-02-24T08:17:33.238Z,9.34
2023-02-24T08:20:00.490Z,9.54
2023-02-24T08:22:27.463Z,9.58
2023-02-24T08:24:54.181Z,9.27
2023-02-24T08:27:20.606Z,9.66
2023-02-24T08:29:48.277Z,9.68
2023-02-24T08:32:14.771Z,9.60
2023-02-24T08:34:41.264Z,10.00
2023-02-24T08:37:07.657Z,9.77
2023-02-24T08:39:34.390Z,9.43
2023-02-24T08:42:00.758Z,9.25
2023-02-24T08:44:27.247Z,9.58
2023-02-24T08:46:53.737Z,9.11
2023-02-24T08:49:21.174Z,9.33
2023-02-24T08:51:49.961Z,9.15
2023-02-24T08:54:16.622Z,9.09
2023-02-24T08:56:43.020Z,9.44
2023-02-24T08:59:11.771Z,9.39
2023-02-24T09:01:38.495Z,9.07
2023-02-24T09:04:04.876Z,8.72
2023-02-24T09:06:31.333Z,8.82
2023-02-24T09:08:57.750Z,8.91
2023-02-24T09:11:24.413Z,8.53
2023-02-24T09:13:50.809Z,8.59
2023-02-24T09:16:17.346Z,8.66
2023-02-24T09:18:43.804Z,8.46
2023-02-24T09:21:10.218Z,8.12
2023-02-24T09:23:41.038Z,7.71
2023-02-24T09:26:11.702Z,8.02
2023-02-24T09:28:38.304Z,8.12
2023-02-24T09:31:05.617Z,8.37
2023-02-24T09:33:32.016Z,8.38
2023-02-24T09:35:58.592Z,8.70
2023-02-24T09:38:26.441Z,8.53
2023-02-24T09:40:52.871Z,8.25
2023-02-24T09:43:21.633Z,8.64
2023-02-24T09:45:48.342Z,8.96
2023-02-24T09:48:16.706Z,9.24
2023-02-24T09:51:01.368Z,9.95
2023-02-24T09:53:29.487Z,10.14
2023-02-24T09:55:56.121Z,10.50
2023-02-24T09:58:34.836Z,10.58
2023-02-24T10:01:08.590Z,9.97
2023-02-24T10:03:35.104Z,10.59
2023-02-24T10:06:01.645Z,10.90
2023-02-24T10:08:28.045Z,10.56
2023-02-24T10:10:55.011Z,10.86
2023-02-24T10:13:21.369Z,11.04
2023-02-24T10:15:56.898Z,11.17
2023-02-24T10:18:23.685Z,10.92
2023-02-24T10:20:50.193Z,11.10
2023-02-24T10:23:16.677Z,10.83
2023-02-24T10:25:43.087Z,11.23
2023-02-24T10:28:09.891Z,10.81
2023-02-24T10:30:36.436Z,10.46
2023-02-24T10:33:03.183Z,10.63
2023-02-24T10:35:30.644Z,10.79
2023-02-24T10:37:57.349Z,10.22
2023-02-24T10:40:26.067Z,10.33
2023-02-24T10:42:52.502Z,10.04
2023-02-24T10:45:23.304Z,9.11
2023-02-24T10:47:49.831Z,8.11
2023-02-24T10:50:16.477Z,7.94
2023-02-24T10:52:43.923Z,7.99
2023-02-24T10:55:12.650Z,8.07
2023-02-24T10:57:53.541Z,8.61
2023-02-24T11:00:26.912Z,9.03
2023-02-24T11:02:54.406Z,8.84
2023-02-24T11:05:20.759Z,9.30
2023-02-24T11:07:47.145Z,9.14
2023-02-24T11:10:13.558Z,8.90
2023-02-24T11:12:40.287Z,8.96
2023-02-24T11:15:06.651Z,8.74
2023-02-24T11:17:33.445Z,9.25
2023-02-24T11:20:01.946Z,9.73
2023-02-24T11:22:28.435Z,8.81
2023-02-24T11:24:55.079Z,9.55
2023-02-24T11:27:21.416Z,8.98
2023-02-24T11:29:48.824Z,8.67
2023-02-24T11:32:15.665Z,7.98
2023-02-24T11:34:42.122Z,7.63
2023-02-24T11:37:08.586Z,7.27
2023-02-24T11:39:34.952Z,6.90
2023-02-24T12:17:07.051Z,11.13
2023-02-24T12:19:33.386Z,10.77
2023-02-24T12:21:59.725Z,10.30
2023-02-24T12:24:26.065Z,9.87
2023-02-24T12:26:52.392Z,9.26
2023-02-24T12:29:18.764Z,9.06
2023-02-24T12:31:45.475Z,8.04
2023-02-24T12:34:12.021Z,7.76
2023-02-24T12:36:38.432Z,8.82
2023-02-24T12:39:04.781Z,7.91
2023-02-24T12:41:31.170Z,8.92
2023-02-24T12:43:57.756Z,8.36
2023-02-24T12:46:24.095Z,8.47
2023-02-24T12:48:50.449Z,8.64
2023-02-24T12:51:16.833Z,8.80
2023-02-24T12:53:43.281Z,8.32
2023-02-24T12:56:09.622Z,8.26
2023-02-24T12:58:36.048Z,8.28
2023-02-24T13:01:02.487Z,7.98
2023-02-24T13:03:28.909Z,8.36
2023-02-24T13:05:55.288Z,8.26
2023-02-24T13:08:21.698Z,8.03
2023-02-24T13:10:48.081Z,8.26
2023-02-24T13:13:14.461Z,8.34
2023-02-24T13:15:40.806Z,8.46
2023-02-24T13:18:07.134Z,8.33
2023-02-24T13:20:33.507Z,8.14
2023-02-24T13:22:59.853Z,8.35
2023-02-24T13:25:26.221Z,8.31
2023-02-24T13:27:52.616Z,8.66
2023-02-24T13:30:18.968Z,8.32
2023-02-24T13:32:45.485Z,8.79
2023-02-24T13:35:11.960Z,8.35
2023-02-24T18:25:54.116Z,8.54
2023-02-24T18:28:22.785Z,8.74
2023-02-24T18:30:49.324Z,9.47
2023-02-24T18:33:16.074Z,8.56
2023-02-24T18:35:42.603Z,8.36
2023-02-24T18:38:08.996Z,8.60
2023-02-24T18:40:35.366Z,9.19
2023-02-24T18:43:02.007Z,9.23
2023-02-24T18:45:28.533Z,10.26
2023-02-24T18:47:55.222Z,9.91
2023-02-24T18:50:21.575Z,10.19
2023-02-24T18:52:47.939Z,9.85
2023-02-24T18:55:14.540Z,10.01
2023-02-24T18:57:40.937Z,10.18
2023-02-24T19:00:07.533Z,9.47
2023-02-24T19:02:33.931Z,9.55
2023-02-24T19:05:00.709Z,9.31
2023-02-24T19:07:27.108Z,9.57
2023-02-24T19:09:53.538Z,10.20
2023-02-24T19:12:20.078Z,10.46
2023-02-24T19:14:49.294Z,10.15
2023-02-24T19:17:16.965Z,10.13
2023-02-24T19:19:43.319Z,10.12
2023-02-24T19:22:09.697Z,10.12
2023-02-24T19:24:38.155Z,9.51
2023-02-24T19:27:04.928Z,10.18
2023-02-24T19:29:31.259Z,10.01
2023-02-24T19:31:58.151Z,10.03
2023-02-24T19:34:24.674Z,9.73
2023-02-24T19:36:51.023Z,9.94
2023-02-24T19:39:17.364Z,10.22
2023-02-24T19:41:44.200Z,10.08
2023-02-24T19:44:10.747Z,9.87
2023-02-24T19:46:37.316Z,10.15
2023-02-24T19:49:03.938Z,10.13
2023-02-24T19:51:30.321Z,9.53
2023-02-24T19:53:56.695Z,9.83
2023-02-24T19:56:25.349Z,10.10
2023-02-24T19:58:51.803Z,10.25
2023-02-24T20:01:18.707Z,10.02
2023-02-24T20:03:45.088Z,10.57
2023-02-24T20:06:11.863Z,10.34
2023-02-24T20:08:38.350Z,10.47
2023-02-24T20:11:05.060Z,10.60
2023-02-24T20:13:31.545Z,10.90
2023-02-24T20:16:00.202Z,10.80
2023-02-24T20:18:26.966Z,10.39
2023-02-24T20:20:53.407Z,9.61
2023-02-24T20:23:20.353Z,9.65
2023-02-24T20:25:46.811Z,10.51
2023-02-24T20:28:14.003Z,10.21
2023-02-24T20:30:40.496Z,10.64
2023-02-24T20:33:06.921Z,9.75
2023-02-24T20:35:33.618Z,9.44
2023-02-24T20:38:08.124Z,9.79
2023-02-24T20:40:34.588Z,9.55
2023-02-24T20:43:01.127Z,9.67
2023-02-24T20:45:28.121Z,9.79
2023-02-24T20:47:54.612Z,9.36
2023-02-24T20:50:22.058Z,8.75
2023-02-24T20:52:48.501Z,8.11
2023-02-24T20:55:14.888Z,7.55
2023-02-24T20:57:44.363Z,7.47
2023-02-24T21:00:11.434Z,7.17
2023-02-24T21:02:38.201Z,6.89
2023-02-24T21:05:08.059Z,6.51
2023-02-24T21:07:34.843Z,5.76
2023-02-24T21:10:01.341Z,5.53
2023-02-24T21:12:28.066Z,5.25
2023-02-24T21:14:54.753Z,5.38
2023-02-24T21:17:24.013Z,5.18
2023-02-24T21:19:50.745Z,5.25
2023-02-24T21:22:17.216Z,5.09
2023-02-24T21:24:46.683Z,5.10
2023-02-24T21:27:14.252Z,4.93
2023-02-24T21:29:40.829Z,5.05
2023-02-24T21:32:13.093Z,4.85
2023-02-24T21:34:39.704Z,4.87
2023-02-24T21:37:14.520Z,4.87
2023-02-24T21:39:50.922Z,4.87
2023-02-24T21:42:27.272Z,4.67
2023-02-24T21:44:53.914Z,5.08
2023-02-24T21:47:20.620Z,5.01
2023-02-24T21:49:49.000Z,4.24
2023-02-24T21:52:15.717Z,4.16
2023-02-24T21:54:44.340Z,4.21
2023-02-24T21:57:16.204Z,3.96
2023-02-24T21:59:43.252Z,3.88
2023-02-24T22:02:10.385Z,3.69
2023-02-24T22:04:37.766Z,3.57
2023-02-24T22:07:04.593Z,2.86
2023-02-24T22:09:31.101Z,2.61
2023-02-24T22:11:57.479Z,3.32
2023-02-24T22:14:24.198Z,2.85
2023-02-24T22:16:50.962Z,2.70
2023-02-24T22:19:17.527Z,2.69
2023-02-24T22:21:44.429Z,2.67
2023-02-24T22:24:11.026Z,2.48
2023-02-24T22:26:38.706Z,2.58
2023-02-24T22:29:05.562Z,2.70
2023-02-24T22:31:32.583Z,2.41
2023-02-24T22:33:59.187Z,2.81
2023-02-24T22:36:25.904Z,2.83
2023-02-24T22:38:53.027Z,2.41
2023-02-24T22:41:20.836Z,2.57
2023-02-24T22:43:48.718Z,2.37
2023-02-24T22:46:19.705Z,2.51
2023-02-24T22:48:46.361Z,2.22
2023-02-24T22:51:12.744Z,2.35
2023-02-24T22:53:39.527Z,2.08
2023-02-24T22:56:06.338Z,2.20
2023-02-24T22:58:33.076Z,2.24
2023-02-24T23:01:00.304Z,2.23
2023-02-24T23:03:26.931Z,2.22
2023-02-24T23:05:53.944Z,2.50
2023-02-24T23:08:20.719Z,2.30
2023-02-24T23:10:47.409Z,2.16
2023-02-24T23:13:18.638Z,2.35
2023-02-24T23:15:45.070Z,2.18
2023-02-24T23:18:11.768Z,1.92
2023-02-24T23:20:38.250Z,2.12
2023-02-24T23:23:04.753Z,1.80
2023-02-24T23:25:31.390Z,2.20
2023-02-24T23:27:58.118Z,2.19
2023-02-24T23:30:24.520Z,2.06
2023-02-24T23:32:51.092Z,2.00
2023-02-24T23:35:21.542Z,2.08
2023-02-24T23:37:47.931Z,2.09
2023-02-24T23:40:14.985Z,1.94
2023-02-24T23:42:44.810Z,1.91
2023-02-24T23:45:11.518Z,2.04
2023-02-24T23:47:38.306Z,2.16
2023-02-24T23:50:05.432Z,2.00
2023-02-24T23:52:34.025Z,1.95
2023-02-24T23:55:01.528Z,1.80
